Time;durP1;ratioP1;P1;durP2;ratioP2;P2;SDS_P1;SDS_P2;PMS_P1;PMS_P2;Temp;Humidity;BMP_temperature;BMP_pressure;BME280_temperature;BME280_humidity;BME280_pressure;Samples;Min_cycle;Max_cycle;Signal;HPM_P1;HPM_P2
2022/09/16 00:01:24;;;;;;;10.20;2.10;;;14.30;62.20;;;;;;5051568;28;20508;-73
2022/09/16 00:03:57;;;;;;;6.40;1.70;;;14.20;63.00;;;;;;5050227;28;20388;-72
2022/09/16 00:06:28;;;;;;;10.38;2.20;;;14.20;62.90;;;;;;5051859;28;20386;-72
2022/09/16 00:08:59;;;;;;;4.38;2.20;;;14.10;65.40;;;;;;5051469;28;20381;-73
2022/09/16 00:11:25;;;;;;;8.27;1.60;;;14.00;66.90;;;;;;5051421;28;20886;-74
2022/09/16 00:13:51;;;;;;;8.27;1.77;;;14.00;66.50;;;;;;5053907;28;20397;-73
2022/09/16 00:16:26;;;;;;;5.13;1.87;;;14.00;67.50;;;;;;5055444;28;20389;-73
2022/09/16 00:18:59;;;;;;;11.25;2.00;;;14.30;64.80;;;;;;5055203;28;20865;-72
2022/09/16 00:21:26;;;;;;;7.90;2.10;;;14.30;63.20;;;;;;5053331;28;20432;-71
2022/09/16 00:23:52;;;;;;;11.05;2.05;;;14.20;64.10;;;;;;5054765;28;20385;-71
2022/09/16 00:26:18;;;;;;;9.27;2.00;;;14.20;64.00;;;;;;5054899;28;20411;-70
2022/09/16 00:28:46;;;;;;;6.22;1.70;;;14.20;62.90;;;;;;5054878;28;20715;-71
2022/09/16 00:31:12;;;;;;;8.30;1.60;;;14.20;61.90;;;;;;5054765;28;20750;-72
2022/09/16 00:33:37;;;;;;;4.33;1.30;;;14.20;61.00;;;;;;5055086;28;20392;-72
2022/09/16 00:36:12;;;;;;;9.37;1.40;;;14.20;61.10;;;;;;5055327;28;20389;-72
2022/09/16 00:38:38;;;;;;;7.28;2.05;;;14.20;60.60;;;;;;5055008;28;20464;-72
2022/09/16 00:41:05;;;;;;;6.63;1.60;;;14.00;61.50;;;;;;5054858;28;20466;-71
2022/09/16 00:43:46;;;;;;;4.82;1.65;;;14.00;61.90;;;;;;5055191;28;20377;-73
2022/09/16 00:46:11;;;;;;;13.63;2.00;;;13.90;63.00;;;;;;5055181;28;20377;-72
2022/09/16 00:48:37;;;;;;;5.17;1.53;;;13.80;64.20;;;;;;5055702;28;20865;-73
2022/09/16 00:51:06;;;;;;;4.40;1.60;;;13.80;64.80;;;;;;5054635;28;20410;-72
2022/09/16 00:53:41;;;;;;;6.43;1.90;;;13.80;66.50;;;;;;5054993;28;20738;-73
2022/09/16 00:56:10;;;;;;;7.65;1.60;;;13.70;66.50;;;;;;5054909;28;20385;-72
2022/09/16 00:58:45;;;;;;;7.68;1.65;;;13.70;67.60;;;;;;5054314;28;20397;-72
2022/09/16 01:01:10;;;;;;;4.50;1.58;;;13.60;68.20;;;;;;5054905;28;20405;-74
2022/09/16 01:03:45;;;;;;;4.20;1.63;;;13.70;68.70;;;;;;5054987;28;20377;-72
2022/09/16 01:06:13;;;;;;;9.23;2.03;;;13.60;69.20;;;;;;5054948;28;20384;-72
2022/09/16 01:08:41;;;;;;;4.20;1.60;;;13.50;71.40;;;;;;5056136;28;20397;-73
2022/09/16 01:11:07;;;;;;;10.77;1.65;;;13.50;71.60;;;;;;5057744;28;20385;-72
2022/09/16 01:13:33;;;;;;;5.57;1.63;;;13.50;72.70;;;;;;5057504;28;20888;-71
2022/09/16 01:16:08;;;;;;;4.35;1.70;;;13.50;71.80;;;;;;5054779;28;20985;-72
2022/09/16 01:18:57;;;;;;;8.10;1.90;;;13.50;71.90;;;;;;5054197;28;20385;-71
2022/09/16 01:21:28;;;;;;;9.80;2.00;;;13.50;71.50;;;;;;5053574;28;20409;-72
2022/09/16 01:24:20;;;;;;;5.65;1.60;;;13.60;69.40;;;;;;5053689;28;20373;-72
2022/09/16 01:27:13;;;;;;;8.48;1.92;;;13.70;67.60;;;;;;5053682;28;20377;-72
2022/09/16 01:30:10;;;;;;;6.78;1.38;;;13.80;63.80;;;;;;5053473;28;20381;-71
2022/09/16 01:33:07;;;;;;;7.35;1.60;;;13.80;64.90;;;;;;5053602;28;20472;-73
2022/09/16 01:35:55;;;;;;;4.13;1.70;;;13.70;66.80;;;;;;5053392;28;20389;-72
2022/09/16 01:38:42;;;;;;;8.65;1.90;;;13.70;66.60;;;;;;5053440;28;20377;-72
2022/09/16 01:41:30;;;;;;;4.85;1.60;;;13.80;66.20;;;;;;5053199;28;20882;-72
2022/09/16 01:44:25;;;;;;;6.50;2.00;;;13.80;66.30;;;;;;5053602;28;20452;-71
2022/09/16 01:47:23;;;;;;;8.63;2.00;;;13.80;66.30;;;;;;5047785;28;20478;-72
2022/09/16 01:49:52;;;;;;;7.20;2.08;;;13.90;64.60;;;;;;5053336;28;20698;-72
2022/09/16 01:52:26;;;;;;;4.22;1.75;;;13.80;65.40;;;;;;5052999;28;20392;-72
2022/09/16 01:55:00;;;;;;;5.00;1.83;;;13.90;65.90;;;;;;5052928;28;20447;-73
2022/09/16 01:58:00;;;;;;;6.32;1.90;;;13.90;65.60;;;;;;5052581;28;20517;-71
2022/09/16 02:00:26;;;;;;;8.45;1.90;;;13.90;64.90;;;;;;5040051;28;20459;-72
2022/09/16 02:03:06;;;;;;;6.40;1.60;;;13.90;66.70;;;;;;5051580;28;20401;-72
2022/09/16 02:05:56;;;;;;;5.28;1.50;;;13.90;66.50;;;;;;5052985;28;20378;-72
2022/09/16 02:08:30;;;;;;;3.33;1.90;;;13.90;67.10;;;;;;5052758;28;20377;-73
2022/09/16 02:10:59;;;;;;;8.10;1.83;;;13.90;67.50;;;;;;5052638;28;20898;-71
2022/09/16 02:13:38;;;;;;;7.43;1.98;;;13.90;66.10;;;;;;5052934;28;20381;-72
2022/09/16 02:16:11;;;;;;;4.18;1.67;;;13.90;65.50;;;;;;5052776;28;20381;-71
2022/09/16 02:18:41;;;;;;;3.90;1.50;;;13.90;67.10;;;;;;5052437;28;20442;-72
2022/09/16 02:21:12;;;;;;;6.78;1.80;;;13.80;66.60;;;;;;5052449;28;20389;-71
2022/09/16 02:23:41;;;;;;;11.30;1.90;;;13.90;65.90;;;;;;5052570;28;20386;-73
2022/09/16 02:26:10;;;;;;;9.93;2.20;;;13.90;66.60;;;;;;5052883;28;20457;-72
2022/09/16 02:28:40;;;;;;;11.45;2.47;;;13.90;65.40;;;;;;5052417;28;20385;-72
2022/09/16 02:31:08;;;;;;;5.00;1.63;;;13.90;65.70;;;;;;5052629;28;20382;-73
2022/09/16 02:33:43;;;;;;;6.18;1.80;;;13.90;65.40;;;;;;5052474;28;20797;-72
2022/09/16 02:36:18;;;;;;;15.82;2.42;;;13.90;64.60;;;;;;5051806;28;20889;-72
2022/09/16 02:38:47;;;;;;;5.60;1.90;;;13.90;65.00;;;;;;5052496;28;20750;-72
2022/09/16 02:41:13;;;;;;;5.35;1.80;;;14.00;63.80;;;;;;5052011;28;20504;-71
2022/09/16 02:43:44;;;;;;;8.90;2.00;;;14.00;62.50;;;;;;5052275;28;20386;-71
2022/09/16 02:46:28;;;;;;;9.48;2.00;;;14.00;64.40;;;;;;5052197;28;20826;-73
2022/09/16 02:49:02;;;;;;;10.03;1.93;;;14.00;63.60;;;;;;5052024;28;20456;-71
2022/09/16 02:51:55;;;;;;;6.18;1.90;;;14.00;63.20;;;;;;5051807;28;20377;-73
2022/09/16 02:54:45;;;;;;;6.20;1.55;;;14.00;63.70;;;;;;5052194;28;20389;-71
2022/09/16 02:57:11;;;;;;;8.85;1.80;;;14.00;62.00;;;;;;5052617;28;20932;-70
2022/09/16 02:59:38;;;;;;;6.53;2.20;;;14.00;63.30;;;;;;5052725;28;20459;-72
2022/09/16 03:02:03;;;;;;;6.22;2.03;;;13.90;64.50;;;;;;5052673;28;20401;-72
2022/09/16 03:04:29;;;;;;;9.13;1.85;;;13.80;66.00;;;;;;5053359;28;20923;-73
2022/09/16 03:06:55;;;;;;;10.60;2.80;;;13.90;65.60;;;;;;5063145;28;20362;-74
2022/09/16 03:09:23;;;;;;;6.50;1.70;;;13.90;65.40;;;;;;5072228;28;20389;-73
2022/09/16 03:12:09;;;;;;;7.18;2.20;;;13.90;66.40;;;;;;5068015;28;20392;-71
2022/09/16 03:15:07;;;;;;;8.57;2.08;;;13.90;67.30;;;;;;5067236;28;20397;-71
2022/09/16 03:17:58;;;;;;;11.30;2.30;;;13.80;68.60;;;;;;5064886;28;20378;-72
2022/09/16 03:20:39;;;;;;;9.13;2.20;;;13.80;70.20;;;;;;5058470;28;20377;-71
2022/09/16 03:23:24;;;;;;;5.30;2.05;;;13.70;70.20;;;;;;5054425;28;20384;-73
2022/09/16 03:26:21;;;;;;;10.10;3.03;;;13.80;70.40;;;;;;5052231;28;20742;-72
2022/09/16 03:29:01;;;;;;;7.95;2.60;;;13.80;69.80;;;;;;5051391;28;20399;-73
2022/09/16 03:31:38;;;;;;;5.93;2.60;;;13.80;70.20;;;;;;5051170;28;20381;-73
2022/09/16 03:34:16;;;;;;;5.68;1.90;;;13.80;70.80;;;;;;5049833;28;20400;-71
2022/09/16 03:36:50;;;;;;;7.20;2.60;;;13.80;69.90;;;;;;5051191;28;20821;-70
2022/09/16 03:39:17;;;;;;;7.47;2.15;;;13.70;71.90;;;;;;5051040;28;20730;-73
2022/09/16 03:41:43;;;;;;;8.98;2.67;;;13.70;71.70;;;;;;5050749;28;20402;-71
2022/09/16 03:44:09;;;;;;;7.97;2.80;;;13.60;73.40;;;;;;5051440;28;20378;-73
2022/09/16 03:46:35;;;;;;;6.40;2.13;;;13.60;75.20;;;;;;5051117;28;20390;-73
2022/09/16 03:49:00;;;;;;;13.40;2.83;;;13.50;74.80;;;;;;5051001;28;20397;-72
2022/09/16 03:51:26;;;;;;;9.83;3.03;;;13.50;75.80;;;;;;5051727;28;20393;-72
2022/09/16 03:53:53;;;;;;;9.40;2.67;;;13.40;77.50;;;;;;5049932;28;20882;-71
2022/09/16 03:56:19;;;;;;;9.43;2.90;;;13.40;77.50;;;;;;5051038;28;20459;-72
2022/09/16 03:58:46;;;;;;;8.57;2.60;;;13.30;80.50;;;;;;5051527;28;20488;-72
2022/09/16 04:01:13;;;;;;;8.07;2.80;;;13.20;82.00;;;;;;5050927;28;20440;-72
2022/09/16 04:03:38;;;;;;;6.68;2.92;;;13.20;82.50;;;;;;5051052;28;20885;-71
2022/09/16 04:06:04;;;;;;;8.27;2.80;;;13.20;83.50;;;;;;5050971;28;20389;-71
2022/09/16 04:08:30;;;;;;;13.20;3.33;;;13.20;84.00;;;;;;5051252;28;20417;-71
2022/09/16 04:11:01;;;;;;;12.55;3.97;;;13.10;83.60;;;;;;5050134;28;20389;-72
2022/09/16 04:13:32;;;;;;;9.25;3.85;;;13.00;86.70;;;;;;5050412;28;20377;-73
2022/09/16 04:15:58;;;;;;;12.27;3.70;;;12.90;87.40;;;;;;5051257;28;20492;-72
2022/09/16 04:18:24;;;;;;;10.18;3.58;;;12.80;89.90;;;;;;5051357;28;20392;-71
2022/09/16 04:20:50;;;;;;;7.72;3.40;;;12.80;91.00;;;;;;5051732;28;20762;-72
2022/09/16 04:23:15;;;;;;;12.52;3.63;;;12.90;91.10;;;;;;5052761;28;20737;-72
2022/09/16 04:25:41;;;;;;;12.80;3.83;;;13.00;90.20;;;;;;5052353;28;20380;-71
2022/09/16 04:28:07;;;;;;;12.15;3.47;;;13.10;88.30;;;;;;5051332;28;20521;-72
2022/09/16 04:30:33;;;;;;;9.73;4.20;;;13.20;87.50;;;;;;5050998;28;20480;-73
2022/09/16 04:32:58;;;;;;;12.60;4.53;;;13.20;87.90;;;;;;5050778;28;20515;-73
2022/09/16 04:35:24;;;;;;;11.82;3.95;;;13.10;87.70;;;;;;5051301;28;20385;-73
2022/09/16 04:37:51;;;;;;;13.05;4.10;;;13.30;86.20;;;;;;5050800;28;20384;-71
2022/09/16 04:40:17;;;;;;;7.53;3.30;;;13.30;86.10;;;;;;5051017;28;20385;-72
2022/09/16 04:42:50;;;;;;;10.07;3.95;;;13.50;85.10;;;;;;5050659;28;20408;-72
2022/09/16 04:45:16;;;;;;;10.75;4.38;;;13.50;86.40;;;;;;5051100;28;20798;-72
2022/09/16 04:47:42;;;;;;;12.00;5.38;;;13.30;88.40;;;;;;5051535;28;20393;-72
2022/09/16 04:50:08;;;;;;;13.48;3.92;;;13.20;91.60;;;;;;5049566;28;20388;-71
2022/09/16 04:52:34;;;;;;;14.57;4.70;;;13.20;93.50;;;;;;5050256;28;20746;-72
2022/09/16 04:54:59;;;;;;;12.95;4.38;;;13.10;94.70;;;;;;5066468;28;20389;-73
2022/09/16 04:57:28;;;;;;;13.05;4.40;;;13.00;96.10;;;;;;5050784;28;20802;-72
2022/09/16 04:59:54;;;;;;;10.45;4.95;;;13.00;96.20;;;;;;5052984;28;20401;-71
2022/09/16 05:02:19;;;;;;;64.43;44.27;;;13.00;97.60;;;;;;5054537;28;20420;-72
2022/09/16 05:04:45;;;;;;;141.20;79.60;;;13.00;97.60;;;;;;5055173;28;20385;-73
2022/09/16 05:07:10;;;;;;;10.17;5.07;;;13.00;99.40;;;;;;5053534;28;20397;-71
2022/09/16 05:09:36;;;;;;;15.02;4.90;;;13.10;94.90;;;;;;5054933;28;20535;-73
2022/09/16 05:12:02;;;;;;;17.48;9.35;;;13.10;95.60;;;;;;5054377;28;20478;-71
2022/09/16 05:14:27;;;;;;;78.93;51.50;;;13.10;97.20;;;;;;5054470;28;20409;-71
2022/09/16 05:16:53;;;;;;;44.10;26.43;;;13.10;98.90;;;;;;5054225;28;20465;-73
2022/09/16 05:19:19;;;;;;;13.10;4.90;;;13.20;97.30;;;;;;5054250;28;20396;-72
2022/09/16 05:21:44;;;;;;;12.27;4.45;;;13.20;91.90;;;;;;5054666;28;20405;-71
2022/09/16 05:24:12;;;;;;;8.63;4.47;;;13.20;89.40;;;;;;5054865;28;20465;-72
2022/09/16 05:26:40;;;;;;;20.25;4.82;;;13.10;91.20;;;;;;5054661;28;20854;-72
2022/09/16 05:29:09;;;;;;;13.60;5.50;;;13.10;92.20;;;;;;5053628;28;20389;-70
2022/09/16 05:31:37;;;;;;;10.13;4.90;;;13.10;93.30;;;;;;5054905;28;20394;-72
2022/09/16 05:34:06;;;;;;;65.80;37.63;;;13.10;93.30;;;;;;5055387;28;20389;-73
2022/09/16 05:36:34;;;;;;;26.15;12.68;;;13.10;92.20;;;;;;5053215;28;20861;-72
2022/09/16 05:39:00;;;;;;;10.23;4.57;;;13.20;90.60;;;;;;5056143;28;20405;-72
2022/09/16 05:41:26;;;;;;;11.90;3.83;;;13.10;89.30;;;;;;5053819;28;20523;-73
2022/09/16 05:43:53;;;;;;;13.45;6.07;;;13.20;87.10;;;;;;5053951;28;20738;-71
2022/09/16 05:46:21;;;;;;;13.38;4.50;;;13.20;83.50;;;;;;5053354;28;20389;-71
2022/09/16 05:48:48;;;;;;;11.93;4.60;;;13.20;86.10;;;;;;5054392;28;20896;-72
2022/09/16 05:51:19;;;;;;;17.00;6.80;;;13.10;85.40;;;;;;5054131;28;20385;-75
2022/09/16 05:53:45;;;;;;;11.57;4.00;;;13.20;84.20;;;;;;5054058;28;20926;-72
2022/09/16 05:56:13;;;;;;;16.60;7.63;;;13.10;83.70;;;;;;5055084;28;20385;-71
2022/09/16 05:58:40;;;;;;;14.38;4.00;;;13.10;82.80;;;;;;5053548;28;20476;-72
2022/09/16 06:01:17;;;;;;;10.18;3.47;;;13.20;83.00;;;;;;5053488;28;20413;-74
2022/09/16 06:03:44;;;;;;;10.38;3.17;;;13.20;81.70;;;;;;5053323;28;20758;-73
2022/09/16 06:06:21;;;;;;;17.10;8.80;;;13.20;80.80;;;;;;5053907;28;20388;-72
2022/09/16 06:08:46;;;;;;;11.73;3.28;;;13.20;82.40;;;;;;5053588;28;20370;-72
2022/09/16 06:11:12;;;;;;;9.10;4.00;;;13.20;81.30;;;;;;5052880;28;20386;-72
2022/09/16 06:13:38;;;;;;;7.10;3.00;;;13.30;82.00;;;;;;5055235;28;20385;-72
2022/09/16 06:16:06;;;;;;;11.77;3.40;;;13.40;82.20;;;;;;5055138;28;20385;-74
2022/09/16 06:18:32;;;;;;;12.50;3.20;;;13.40;79.10;;;;;;5055732;28;20464;-73
2022/09/16 06:21:02;;;;;;;16.42;3.30;;;13.40;80.70;;;;;;5054820;28;20478;-72
2022/09/16 06:23:28;;;;;;;5.85;2.97;;;13.40;78.90;;;;;;5054437;28;20402;-72
2022/09/16 06:26:02;;;;;;;10.77;3.50;;;13.50;78.70;;;;;;5054401;28;20404;-72
2022/09/16 06:28:28;;;;;;;10.13;3.03;;;13.50;78.50;;;;;;5054601;28;20382;-72
2022/09/16 06:31:02;;;;;;;11.03;3.30;;;13.60;77.00;;;;;;5054358;28;20397;-72
2022/09/16 06:33:28;;;;;;;9.10;3.10;;;14.00;75.10;;;;;;5053240;28;20471;-71
2022/09/16 06:35:55;;;;;;;5.72;2.60;;;14.00;71.50;;;;;;5052728;28;20377;-72
2022/09/16 06:38:21;;;;;;;7.25;2.60;;;14.00;72.50;;;;;;5052798;28;20386;-72
2022/09/16 06:40:46;;;;;;;12.13;2.80;;;13.90;71.70;;;;;;5052273;28;20470;-72
2022/09/16 06:43:12;;;;;;;8.27;2.90;;;13.90;71.50;;;;;;5052986;28;20385;-72
2022/09/16 06:45:37;;;;;;;8.60;2.73;;;14.00;71.30;;;;;;5052957;28;20480;-73
2022/09/16 06:48:03;;;;;;;6.68;3.03;;;14.00;69.20;;;;;;5052990;28;20393;-72
2022/09/16 06:50:28;;;;;;;4.53;2.40;;;14.10;68.30;;;;;;5052455;28;20457;-72
2022/09/16 06:52:54;;;;;;;9.83;3.50;;;13.90;70.40;;;;;;5052289;28;21035;-73
2022/09/16 06:55:19;;;;;;;8.70;2.63;;;13.90;72.00;;;;;;5052260;28;20901;-72
2022/09/16 06:57:45;;;;;;;8.55;3.17;;;14.00;68.90;;;;;;5052397;28;20381;-72
2022/09/16 07:00:12;;;;;;;5.88;2.80;;;14.00;68.50;;;;;;5052095;28;20443;-71
2022/09/16 07:02:38;;;;;;;6.15;2.10;;;14.10;68.80;;;;;;5051734;28;20424;-74
2022/09/16 07:05:03;;;;;;;5.85;2.60;;;14.10;68.20;;;;;;5052643;28;20378;-73
2022/09/16 07:07:31;;;;;;;8.10;2.53;;;14.10;67.30;;;;;;5052371;28;20393;-72
2022/09/16 07:09:57;;;;;;;7.60;2.97;;;14.20;67.70;;;;;;5052627;28;20385;-73
2022/09/16 07:12:23;;;;;;;8.32;2.80;;;14.30;65.50;;;;;;5065501;28;20376;-71
2022/09/16 07:14:48;;;;;;;10.13;2.60;;;14.30;67.00;;;;;;5062009;28;20429;-72
2022/09/16 07:17:14;;;;;;;12.10;3.30;;;14.40;63.70;;;;;;5062653;28;20381;-74
2022/09/16 07:19:41;;;;;;;6.22;2.45;;;14.50;65.40;;;;;;5055642;28;20401;-72
2022/09/16 07:22:06;;;;;;;9.13;3.00;;;14.40;64.70;;;;;;5053276;28;20447;-73
2022/09/16 07:24:32;;;;;;;10.50;3.55;;;14.40;63.60;;;;;;5054773;28;20385;-72
2022/09/16 07:26:58;;;;;;;10.82;3.38;;;14.30;67.10;;;;;;5054342;28;20397;-73
2022/09/16 07:29:23;;;;;;;8.07;2.92;;;14.10;67.10;;;;;;5054068;28;20390;-71
2022/09/16 07:31:49;;;;;;;9.93;2.80;;;14.20;67.70;;;;;;5052024;28;20397;-72
2022/09/16 07:34:14;;;;;;;7.80;3.10;;;14.10;68.50;;;;;;5054172;28;20481;-73
2022/09/16 07:36:45;;;;;;;11.47;3.63;;;14.10;67.90;;;;;;5069437;28;20406;-73
2022/09/16 07:39:12;;;;;;;4.70;2.90;;;14.00;70.20;;;;;;5071729;28;20381;-75
2022/09/16 07:41:41;;;;;;;5.43;3.33;;;13.90;70.70;;;;;;5072370;28;20392;-73
2022/09/16 07:44:10;;;;;;;11.57;3.20;;;14.00;71.00;;;;;;5062763;28;20416;-72
2022/09/16 07:46:36;;;;;;;12.27;3.30;;;14.00;73.70;;;;;;5051953;28;20385;-73
2022/09/16 07:49:04;;;;;;;6.17;2.80;;;14.10;71.60;;;;;;5051961;28;20477;-71
2022/09/16 07:51:30;;;;;;;11.25;3.65;;;14.10;70.20;;;;;;5051495;28;20381;-72
2022/09/16 07:54:02;;;;;;;12.67;3.20;;;14.20;70.60;;;;;;5051848;28;20751;-72
2022/09/16 07:56:30;;;;;;;6.55;2.90;;;14.30;70.60;;;;;;5052428;28;20377;-72
2022/09/16 07:58:56;;;;;;;9.32;3.20;;;14.40;71.00;;;;;;5052705;28;20401;-72
2022/09/16 08:01:22;;;;;;;7.70;2.60;;;14.60;64.90;;;;;;5051769;28;21032;-75
2022/09/16 08:03:48;;;;;;;10.43;3.30;;;14.70;63.10;;;;;;5051861;28;20467;-74
2022/09/16 08:06:20;;;;;;;7.63;2.90;;;14.80;62.60;;;;;;5052251;28;20416;-74
2022/09/16 08:08:46;;;;;;;7.50;3.00;;;14.90;58.50;;;;;;5052403;28;20381;-73
2022/09/16 08:11:13;;;;;;;9.85;2.90;;;14.80;60.20;;;;;;5052072;28;20386;-73
2022/09/16 08:13:40;;;;;;;9.07;2.53;;;14.90;55.30;;;;;;5052028;28;20390;-74
2022/09/16 08:16:09;;;;;;;9.70;2.80;;;14.80;57.30;;;;;;5052301;28;20472;-73
2022/09/16 08:18:35;;;;;;;5.70;2.25;;;14.90;54.90;;;;;;5053114;28;20428;-73
2022/09/16 08:21:15;;;;;;;5.28;2.50;;;15.00;52.40;;;;;;5051841;28;20401;-73
2022/09/16 08:23:41;;;;;;;12.75;2.78;;;15.00;54.90;;;;;;5051891;28;20576;-73
2022/09/16 08:26:09;;;;;;;10.75;2.40;;;15.00;53.40;;;;;;5052624;28;20622;-74
2022/09/16 08:28:37;;;;;;;6.63;2.20;;;14.90;48.10;;;;;;5052640;28;20401;-73
2022/09/16 08:31:03;;;;;;;5.63;1.80;;;14.80;50.90;;;;;;5052723;28;20394;-72
2022/09/16 08:33:29;;;;;;;8.48;2.13;;;14.80;51.60;;;;;;5052431;28;20382;-74
2022/09/16 08:36:04;;;;;;;7.03;2.00;;;14.80;50.50;;;;;;5055809;28;20385;-73
2022/09/16 08:38:30;;;;;;;6.72;2.20;;;14.90;48.10;;;;;;5055770;28;20435;-74
2022/09/16 08:41:06;;;;;;;6.70;1.90;;;14.90;48.40;;;;;;5055386;28;20509;-72
2022/09/16 08:43:46;;;;;;;6.70;1.80;;;15.10;44.70;;;;;;5056477;28;20634;-74
2022/09/16 08:46:19;;;;;;;6.18;2.00;;;15.30;47.80;;;;;;5059074;28;20399;-72
2022/09/16 08:48:47;;;;;;;5.10;1.80;;;15.50;46.30;;;;;;5065728;28;20385;-72
2022/09/16 08:51:16;;;;;;;5.00;1.95;;;15.60;44.70;;;;;;5069325;28;20408;-71
2022/09/16 08:53:53;;;;;;;4.60;1.55;;;15.60;43.30;;;;;;5067767;28;20408;-71
2022/09/16 08:56:22;;;;;;;7.90;1.80;;;15.60;39.90;;;;;;5065096;28;20381;-73
2022/09/16 08:58:52;;;;;;;7.22;1.40;;;15.50;41.60;;;;;;5063796;28;20393;-73
2022/09/16 09:01:42;;;;;;;7.53;1.70;;;15.70;41.30;;;;;;5059925;28;20448;-73
2022/09/16 09:04:07;;;;;;;5.35;1.40;;;15.70;38.20;;;;;;5060763;28;20377;-74
2022/09/16 09:06:48;;;;;;;5.27;1.20;;;15.80;36.10;;;;;;5076846;28;20472;-73
2022/09/16 09:09:50;;;;;;;12.25;1.90;;;15.80;38.00;;;;;;5062418;28;20865;-73
2022/09/16 09:12:37;;;;;;;5.13;1.50;;;15.80;37.20;;;;;;5057483;28;20481;-74
2022/09/16 09:15:37;;;;;;;6.65;2.22;;;15.90;37.00;;;;;;5059452;28;20933;-73
2022/09/16 09:18:23;;;;;;;7.20;1.65;;;15.90;37.40;;;;;;5058297;28;20396;-73
2022/09/16 09:21:01;;;;;;;6.80;1.90;;;16.10;38.50;;;;;;5057381;28;20978;-73
2022/09/16 09:23:39;;;;;;;3.78;1.10;;;16.20;37.50;;;;;;5056087;28;20385;-72
2022/09/16 09:26:22;;;;;;;4.90;1.63;;;16.50;33.90;;;;;;5056069;28;20378;-73
2022/09/16 09:29:33;;;;;;;7.90;1.60;;;16.80;32.50;;;;;;5054643;28;20495;-73
2022/09/16 09:32:23;;;;;;;6.57;1.50;;;17.20;30.80;;;;;;5032061;28;20392;-74
2022/09/16 09:35:09;;;;;;;4.25;1.40;;;17.10;29.30;;;;;;5055389;28;20385;-74
2022/09/16 09:37:35;;;;;;;4.18;1.60;;;17.10;28.80;;;;;;5055173;28;20385;-73
2022/09/16 09:40:38;;;;;;;5.10;1.50;;;17.40;28.70;;;;;;5054804;28;20969;-76
2022/09/16 09:43:06;;;;;;;7.68;1.52;;;17.50;29.80;;;;;;5054721;28;20416;-72
2022/09/16 09:45:37;;;;;;;5.30;2.00;;;17.40;30.40;;;;;;5053585;28;20381;-74
2022/09/16 09:48:23;;;;;;;8.88;1.70;;;17.50;30.70;;;;;;5055622;28;20731;-73
2022/09/16 09:50:50;;;;;;;2.75;1.10;;;17.50;27.30;;;;;;5054797;28;20816;-73
2022/09/16 09:53:31;;;;;;;8.20;1.50;;;17.60;26.70;;;;;;5054840;28;20393;-74
2022/09/16 09:56:26;;;;;;;6.75;1.30;;;17.70;27.40;;;;;;5054976;28;20723;-73
2022/09/16 09:59:07;;;;;;;8.80;1.30;;;17.50;26.80;;;;;;5067723;22;20441;-72
2022/09/16 10:01:33;;;;;;;5.77;1.37;;;17.30;28.50;;;;;;5053109;28;20580;-73
2022/09/16 10:03:59;;;;;;;4.40;1.20;;;17.10;26.30;;;;;;5053155;28;20420;-74
2022/09/16 10:06:29;;;;;;;3.67;1.20;;;17.10;27.80;;;;;;5052980;28;20889;-73
2022/09/16 10:08:57;;;;;;;5.45;1.30;;;16.80;27.50;;;;;;5053101;28;20388;-73
2022/09/16 10:11:30;;;;;;;10.18;1.52;;;16.60;29.10;;;;;;5052831;28;20381;-74
2022/09/16 10:14:01;;;;;;;8.03;1.30;;;16.60;29.60;;;;;;5053279;28;20389;-73
2022/09/16 10:16:36;;;;;;;4.97;1.10;;;16.60;30.00;;;;;;5053531;28;20768;-74
2022/09/16 10:19:19;;;;;;;4.70;1.40;;;16.40;25.90;;;;;;5035970;28;20829;-74
2022/09/16 10:21:49;;;;;;;4.68;1.15;;;16.30;26.40;;;;;;5053194;28;20401;-71
2022/09/16 10:24:33;;;;;;;6.17;1.33;;;16.70;25.50;;;;;;5035889;28;20389;-74
2022/09/16 10:27:02;;;;;;;3.67;1.30;;;16.90;24.70;;;;;;5054191;28;20492;-74
2022/09/16 10:29:28;;;;;;;4.80;1.30;;;17.30;24.50;;;;;;5053711;28;20882;-73
2022/09/16 10:31:54;;;;;;;2.38;1.08;;;17.60;23.90;;;;;;5054857;28;20385;-74
2022/09/16 10:34:28;;;;;;;6.40;1.30;;;17.70;23.50;;;;;;5041353;28;20477;-73
2022/09/16 10:37:02;;;;;;;4.75;1.50;;;17.40;26.20;;;;;;5039059;28;20389;-73
2022/09/16 10:39:29;;;;;;;5.38;1.40;;;17.10;31.90;;;;;;5056240;28;20735;-74
2022/09/16 10:41:55;;;;;;;5.32;1.45;;;16.50;35.50;;;;;;5056080;28;20736;-72
2022/09/16 10:44:24;;;;;;;3.97;1.30;;;16.00;38.60;;;;;;5053459;28;20392;-75
2022/09/16 10:47:20;;;;;;;6.30;1.60;;;15.80;40.40;;;;;;5053686;28;20413;-73
2022/09/16 10:49:50;;;;;;;6.53;1.90;;;15.70;42.00;;;;;;5043612;28;20394;-73
2022/09/16 10:52:21;;;;;;;3.90;1.00;;;15.70;40.70;;;;;;5053046;28;20390;-73
2022/09/16 10:54:47;;;;;;;6.63;1.40;;;16.10;38.70;;;;;;5053127;28;20874;-73
2022/09/16 10:57:24;;;;;;;5.72;1.23;;;16.00;38.30;;;;;;5054302;28;20439;-73
2022/09/16 11:00:09;;;;;;;3.45;1.20;;;16.00;37.60;;;;;;5053571;28;20401;-73
2022/09/16 11:03:02;;;;;;;4.53;1.27;;;15.90;37.20;;;;;;5034957;28;20968;-73
2022/09/16 11:05:45;;;;;;;5.10;1.30;;;15.90;36.60;;;;;;5053138;28;20384;-73
2022/09/16 11:08:46;;;;;;;5.80;1.60;;;16.00;38.70;;;;;;5052729;28;20384;-73
2022/09/16 11:11:36;;;;;;;8.05;1.80;;;16.20;38.00;;;;;;5047968;28;20818;-73
2022/09/16 11:14:19;;;;;;;4.95;1.67;;;16.30;37.90;;;;;;5052677;28;20932;-72
2022/09/16 11:16:51;;;;;;;8.33;1.70;;;16.60;36.50;;;;;;5052189;28;20393;-74
2022/09/16 11:19:57;;;;;;;4.25;1.27;;;16.70;36.30;;;;;;5052467;28;20878;-73
2022/09/16 11:22:42;;;;;;;6.68;1.50;;;17.00;33.90;;;;;;4971534;28;20494;-73
2022/09/16 11:25:23;;;;;;;7.43;1.50;;;17.30;31.40;;;;;;5051812;28;20474;-72
2022/09/16 11:27:58;;;;;;;6.05;1.70;;;17.60;30.90;;;;;;5051291;28;20416;-72
2022/09/16 11:30:24;;;;;;;6.50;1.42;;;18.00;28.70;;;;;;5051235;28;20381;-74
2022/09/16 11:32:56;;;;;;;5.55;1.50;;;17.70;29.80;;;;;;5051264;28;20753;-73
2022/09/16 11:35:39;;;;;;;7.50;1.60;;;17.80;28.20;;;;;;5033322;28;20397;-73
2022/09/16 11:38:19;;;;;;;4.70;1.30;;;17.60;27.00;;;;;;5051194;28;20410;-73
2022/09/16 11:41:11;;;;;;;6.40;1.20;;;17.70;27.50;;;;;;5051363;28;20401;-73
2022/09/16 11:44:03;;;;;;;6.60;1.65;;;17.50;29.00;;;;;;5037713;28;20386;-73
2022/09/16 11:46:51;;;;;;;9.57;1.60;;;17.20;31.90;;;;;;5051407;28;20400;-75
2022/09/16 11:49:35;;;;;;;7.43;1.80;;;17.00;34.00;;;;;;5032760;28;20786;-73
2022/09/16 11:52:27;;;;;;;7.07;1.40;;;16.50;35.20;;;;;;5032952;28;20393;-73
2022/09/16 11:55:01;;;;;;;12.77;2.60;;;15.90;41.80;;;;;;5051124;28;20477;-72
2022/09/16 11:57:51;;;;;;;10.90;3.17;;;15.50;50.70;;;;;;5051016;28;20381;-73
2022/09/16 12:00:18;;;;;;;4.57;1.75;;;14.80;68.40;;;;;;5050634;28;20405;-72
2022/09/16 12:02:58;;;;;;;4.93;1.70;;;14.20;89.20;;;;;;5050523;28;20454;-74
2022/09/16 12:05:39;;;;;;;4.80;1.50;;;13.90;96.10;;;;;;5033031;28;20468;-73
2022/09/16 12:08:23;;;;;;;2.00;1.20;;;13.80;94.40;;;;;;5050600;28;20727;-75
2022/09/16 12:11:04;;;;;;;4.38;1.10;;;13.60;86.40;;;;;;5050145;28;20435;-74
2022/09/16 12:13:38;;;;;;;4.50;1.00;;;13.50;81.10;;;;;;5050646;28;20931;-72
2022/09/16 12:16:13;;;;;;;2.40;0.80;;;13.60;74.00;;;;;;5050574;28;20389;-73
2022/09/16 12:18:49;;;;;;;3.17;1.10;;;13.60;70.10;;;;;;5050485;28;20385;-73
2022/09/16 12:21:41;;;;;;;4.57;1.10;;;13.70;64.30;;;;;;5050147;28;20413;-72
2022/09/16 12:24:40;;;;;;;3.25;0.95;;;13.70;62.70;;;;;;5039804;28;20389;-73
2022/09/16 12:27:26;;;;;;;4.88;1.15;;;13.90;60.70;;;;;;5050221;28;20420;-74
2022/09/16 12:29:59;;;;;;;3.60;0.85;;;14.00;60.70;;;;;;5050686;28;20378;-72
2022/09/16 12:32:50;;;;;;;3.10;0.80;;;14.30;57.80;;;;;;5050508;28;20396;-73
2022/09/16 12:35:25;;;;;;;2.03;0.77;;;14.50;51.20;;;;;;5050273;28;20405;-72
2022/09/16 12:37:53;;;;;;;2.70;0.90;;;14.70;51.70;;;;;;5050271;28;20377;-72
2022/09/16 12:40:26;;;;;;;2.97;1.00;;;14.80;51.00;;;;;;5050313;28;20404;-72
2022/09/16 12:42:57;;;;;;;3.70;1.10;;;14.80;48.50;;;;;;5050151;28;20406;-74
2022/09/16 12:45:44;;;;;;;2.40;1.00;;;15.10;47.40;;;;;;5049968;28;20385;-73
2022/09/16 12:48:22;;;;;;;3.45;0.80;;;15.10;45.80;;;;;;5032109;28;20386;-73
2022/09/16 12:51:15;;;;;;;2.70;0.90;;;15.00;46.70;;;;;;5050554;28;20623;-72
2022/09/16 12:54:02;;;;;;;3.38;1.15;;;15.20;49.80;;;;;;5003840;28;20385;-73
2022/09/16 12:56:28;;;;;;;2.15;1.00;;;15.30;48.70;;;;;;5050346;28;20854;-71
2022/09/16 12:59:06;;;;;;;2.17;1.00;;;15.50;44.90;;;;;;5050023;28;20390;-73
2022/09/16 13:01:41;;;;;;;3.80;0.87;;;15.50;42.30;;;;;;5049977;28;20836;-72
2022/09/16 13:04:31;;;;;;;2.65;1.13;;;15.60;43.00;;;;;;5050394;28;20385;-72
2022/09/16 13:06:58;;;;;;;3.08;1.10;;;16.00;41.40;;;;;;5050117;28;20463;-73
2022/09/16 13:09:32;;;;;;;2.58;0.90;;;16.10;38.50;;;;;;5050584;28;20380;-73
2022/09/16 13:12:01;;;;;;;3.40;1.20;;;16.50;35.70;;;;;;5052115;28;20484;-72
2022/09/16 13:14:31;;;;;;;5.10;1.25;;;16.70;34.10;;;;;;5054498;28;20480;-72